createdAt,value
2017-10-11T00:04:46.357Z,22.8
2017-10-11T00:09:51.787Z,22.7
2017-10-11T00:14:56.876Z,22.8
2017-10-11T00:20:01.973Z,22.8
2017-10-11T00:25:08.085Z,22.8
2017-10-11T00:30:13.856Z,22.7
2017-10-11T00:35:18.597Z,22.7
2017-10-11T00:40:24.387Z,22.7
2017-10-11T00:45:29.804Z,22.7
2017-10-11T00:50:35.238Z,22.7
2017-10-11T00:55:40.668Z,22.7
2017-10-11T01:00:45.748Z,22.7
2017-10-11T01:05:50.832Z,22.7
2017-10-11T01:10:56.259Z,22.7
2017-10-11T01:16:02.375Z,22.7
2017-10-11T01:21:07.114Z,22.7
2017-10-11T01:26:11.857Z,22.7
2017-10-11T01:31:31.299Z,22.7
2017-10-11T01:36:36.040Z,22.7
2017-10-11T01:41:40.434Z,22.7
2017-10-11T01:46:45.520Z,22.7
2017-10-11T01:51:50.611Z,22.7
2017-10-11T01:56:55.354Z,22.7
2017-10-11T02:02:01.131Z,22.7
2017-10-11T02:07:06.557Z,22.7
2017-10-11T02:12:11.655Z,22.7
2017-10-11T02:17:17.422Z,22.7
2017-10-11T02:22:22.155Z,22.7
2017-10-11T02:27:27.247Z,22.7
2017-10-11T02:32:32.342Z,22.7
2017-10-11T02:37:37.432Z,22.7
2017-10-11T02:42:42.170Z,22.7
2017-10-11T02:47:47.261Z,22.7
2017-10-11T02:52:52.347Z,22.7
2017-10-11T02:57:57.428Z,22.7
2017-10-11T03:03:01.824Z,22.7
2017-10-11T03:08:07.251Z,22.7
2017-10-11T03:13:12.682Z,22.7
2017-10-11T03:18:18.110Z,22.6
2017-10-11T03:23:23.193Z,22.6
2017-10-11T03:28:27.974Z,22.7
2017-10-11T03:33:32.367Z,22.6
2017-10-11T03:38:37.457Z,22.7
2017-10-11T03:43:42.881Z,22.6
2017-10-11T03:48:47.625Z,22.6
2017-10-11T03:53:52.364Z,22.6
2017-10-11T03:58:57.446Z,22.6
2017-10-11T04:04:02.188Z,22.6
2017-10-11T04:09:07.271Z,22.6
2017-10-11T04:14:12.712Z,22.6
2017-10-11T04:19:18.498Z,22.6
2017-10-11T04:24:23.936Z,22.6
2017-10-11T04:29:28.670Z,22.6
2017-10-11T04:34:34.109Z,22.6
2017-10-11T04:39:39.193Z,22.6
2017-10-11T04:44:44.619Z,22.6
2017-10-11T04:49:50.391Z,22.7
2017-10-11T04:54:55.564Z,22.7
2017-10-11T04:59:59.966Z,22.7
2017-10-11T05:05:05.412Z,22.7
2017-10-11T05:10:10.508Z,22.7
2017-10-11T05:15:15.595Z,22.7
2017-10-11T05:20:21.025Z,22.7
2017-10-11T05:25:26.470Z,22.7
2017-10-11T05:30:31.556Z,22.7
2017-10-11T05:35:37.035Z,22.7
2017-10-11T05:40:41.777Z,22.7
2017-10-11T05:45:47.210Z,22.8
2017-10-11T05:50:52.299Z,22.8
2017-10-11T05:55:58.415Z,22.8
2017-10-11T06:01:04.196Z,22.8
2017-10-11T06:06:09.978Z,22.8
2017-10-11T06:11:15.749Z,22.8
2017-10-11T06:16:20.490Z,22.8
2017-10-11T06:21:25.925Z,22.8
2017-10-11T06:26:31.018Z,22.8
2017-10-11T06:31:36.103Z,22.8
2017-10-11T06:36:40.853Z,22.8
2017-10-11T06:41:45.935Z,22.9
2017-10-11T06:46:51.024Z,22.9
2017-10-11T06:51:56.110Z,22.9
2017-10-11T06:57:00.852Z,22.9
2017-10-11T07:02:05.956Z,22.9
2017-10-11T07:07:10.360Z,23
2017-10-11T07:12:15.794Z,23
2017-10-11T07:17:21.234Z,23
2017-10-11T07:22:26.321Z,23
2017-10-11T07:27:31.753Z,23
2017-10-11T07:32:36.850Z,23
2017-10-11T07:37:41.942Z,23
2017-10-11T07:42:46.351Z,23
2017-10-11T07:47:51.121Z,23
2017-10-11T07:52:57.238Z,23
2017-10-11T07:58:01.292Z,23
2017-10-11T08:03:06.381Z,23
2017-10-11T08:08:12.161Z,23
2017-10-11T08:13:17.943Z,23
2017-10-11T08:18:23.721Z,23.1
2017-10-11T08:23:28.129Z,23.1
2017-10-11T08:28:32.874Z,23.1
2017-10-11T08:33:38.304Z,23.1
2017-10-11T08:38:44.096Z,23.1
2017-10-11T08:43:49.188Z,23.1
2017-10-11T08:48:54.623Z,23.2
2017-10-11T08:53:59.716Z,23.2
2017-10-11T08:59:04.123Z,23.3
2017-10-11T09:04:09.559Z,23.3
2017-10-11T09:09:14.992Z,23.3
2017-10-11T09:14:19.736Z,23.2
2017-10-11T09:19:24.827Z,23.2
2017-10-11T09:24:29.226Z,23.2
2017-10-11T09:29:33.983Z,23.2
2017-10-11T09:34:39.413Z,23.2
2017-10-11T09:39:44.501Z,23.2
2017-10-11T09:44:50.624Z,23.1
2017-10-11T09:49:55.026Z,23.1
2017-10-11T09:55:00.808Z,23.1
2017-10-11T10:00:05.548Z,23.1
2017-10-11T10:05:11.324Z,23.1
2017-10-11T10:10:16.415Z,23.1
2017-10-11T10:15:21.511Z,23.1
2017-10-11T10:20:26.270Z,23.1
2017-10-11T10:25:31.696Z,23.1
2017-10-11T10:30:36.444Z,23.1
2017-10-11T10:35:41.532Z,23.1
2017-10-11T10:40:47.314Z,23.1
2017-10-11T10:45:52.057Z,23.1
2017-10-11T10:50:57.835Z,23.1
2017-10-11T10:56:02.575Z,23.1
2017-10-11T11:01:06.979Z,23.1
2017-10-11T11:06:13.008Z,23.1
2017-10-11T11:11:17.408Z,23.1
2017-10-11T11:16:23.183Z,23.1
2017-10-11T11:21:28.620Z,23.1
2017-10-11T11:26:33.710Z,23.1
2017-10-11T11:31:39.142Z,23.1
2017-10-11T11:36:43.545Z,23.1
2017-10-11T11:41:48.295Z,23.1
2017-10-11T11:46:54.073Z,23.1
2017-10-11T11:51:59.161Z,23.1
2017-10-11T11:57:03.905Z,23.1
2017-10-11T12:02:08.656Z,23.1
2017-10-11T12:07:13.751Z,23.1
2017-10-11T12:12:18.495Z,23.1
2017-10-11T12:17:23.930Z,23.2
2017-10-11T12:22:28.686Z,23.2
2017-10-11T12:27:34.116Z,23.2
2017-10-11T12:32:39.207Z,23.2
2017-10-11T12:37:44.893Z,23.2
2017-10-11T12:42:50.327Z,23.2
2017-10-11T12:47:55.418Z,23.2
2017-10-11T12:53:00.853Z,23.2
2017-10-11T12:58:06.288Z,23.3
2017-10-11T13:03:11.037Z,23.3
2017-10-11T13:08:15.440Z,23.2
2017-10-11T13:13:20.879Z,23.2
2017-10-11T13:18:26.312Z,23.2
2017-10-11T13:23:31.056Z,23.2
2017-10-11T13:28:37.187Z,23.2
2017-10-11T13:33:41.930Z,23.2
2017-10-11T13:38:47.364Z,23.2
2017-10-11T13:43:52.802Z,23.2
2017-10-11T13:48:58.581Z,23.2
2017-10-11T13:54:04.010Z,23.2
2017-10-11T13:59:09.790Z,23.3
2017-10-11T14:04:15.570Z,23.3
2017-10-11T14:09:21.003Z,23.3
2017-10-11T14:14:26.093Z,23.3
2017-10-11T14:19:31.887Z,23.3
2017-10-11T14:24:37.327Z,23.3
2017-10-11T14:29:42.101Z,23.3
2017-10-11T14:34:47.537Z,23.3
2017-10-11T14:39:53.333Z,23.3
2017-10-11T14:44:59.671Z,23.2
2017-10-11T14:50:04.435Z,23.2
2017-10-11T14:55:09.532Z,23.2
2017-10-11T15:00:14.623Z,23.2
2017-10-11T15:05:19.411Z,23.2
2017-10-11T15:10:25.202Z,23.2
2017-10-11T15:15:29.972Z,23.2
2017-10-11T15:20:35.058Z,23.2
2017-10-11T15:25:40.528Z,23.2
2017-10-11T15:30:45.642Z,23.2
2017-10-11T15:35:50.759Z,23.2
2017-10-11T15:40:56.196Z,23.2
2017-10-11T15:46:00.635Z,23.2
2017-10-11T15:51:05.736Z,23.2
2017-10-11T15:56:11.184Z,23.2
2017-10-11T16:01:16.625Z,23.2
2017-10-11T16:06:22.747Z,23.2
2017-10-11T16:11:28.538Z,23.2
2017-10-11T16:16:33.283Z,23.2
2017-10-11T16:21:38.723Z,23.2
2017-10-11T16:26:43.817Z,23.2
2017-10-11T16:31:48.903Z,23.2
2017-10-11T16:36:54.345Z,23.2
2017-10-11T16:42:00.120Z,23.2
2017-10-11T16:47:05.556Z,23.2
2017-10-11T16:52:10.992Z,23.2
2017-10-11T16:57:16.427Z,23.2
2017-10-11T17:02:21.515Z,23.2
2017-10-11T17:07:26.605Z,23.2
2017-10-11T17:12:31.698Z,23.2
2017-10-11T17:17:36.461Z,23.2
2017-10-11T17:22:41.898Z,23.2
2017-10-11T17:27:47.348Z,23.2
2017-10-11T17:32:52.108Z,23.2
2017-10-11T17:37:57.195Z,23.2
2017-10-11T17:43:01.942Z,23.1
2017-10-11T17:48:06.681Z,23.1
2017-10-11T17:53:11.767Z,23.1
2017-10-11T17:58:16.856Z,23.1
2017-10-11T18:03:22.317Z,23.1
2017-10-11T18:08:27.410Z,23.1
2017-10-11T18:13:32.515Z,23.1
2017-10-11T18:18:37.267Z,23.1
2017-10-11T18:23:43.057Z,23.1
2017-10-11T18:28:48.155Z,23.1
2017-10-11T18:33:53.249Z,23.1
2017-10-11T18:38:57.999Z,23.1
2017-10-11T18:44:03.097Z,23.1
2017-10-11T18:49:08.190Z,23.1
2017-10-11T18:54:13.283Z,23.1
2017-10-11T18:59:18.379Z,23.1
2017-10-11T19:04:24.163Z,23.1
2017-10-11T19:09:29.614Z,23.1
2017-10-11T19:14:35.396Z,23.1
2017-10-11T19:19:41.195Z,23.1
2017-10-11T19:24:47.002Z,23.1
2017-10-11T19:29:52.341Z,23.1
2017-10-11T19:34:57.457Z,23.1
2017-10-11T19:40:02.909Z,23.2
2017-10-11T19:45:08.011Z,23.2
2017-10-11T19:50:13.477Z,23.2
2017-10-11T19:55:19.151Z,23.2
2017-10-11T20:00:24.602Z,23.2
2017-10-11T20:05:30.968Z,23.2
2017-10-11T20:10:36.073Z,23.2
2017-10-11T20:15:41.179Z,23.2
2017-10-11T20:20:45.929Z,23.2
2017-10-11T20:25:51.367Z,23.2
2017-10-11T20:30:57.213Z,23.2
2017-10-11T20:36:02.330Z,23.2
2017-10-11T20:41:07.765Z,23.2
2017-10-11T20:46:13.200Z,23.2
2017-10-11T20:51:18.289Z,23.2
2017-10-11T20:56:23.729Z,23.2
2017-10-11T21:01:28.833Z,23.2
2017-10-11T21:06:34.279Z,23.2
2017-10-11T21:11:39.717Z,23.2
2017-10-11T21:16:44.823Z,23.2
2017-10-11T21:21:49.932Z,23.2
2017-10-11T21:26:55.352Z,23.2
2017-10-11T21:32:00.091Z,23.2
2017-10-11T21:37:05.520Z,23.2
2017-10-11T21:42:10.610Z,23.2
2017-10-11T21:47:16.044Z,23.2
2017-10-11T21:52:21.474Z,23.2
2017-10-11T21:57:26.559Z,23.2
2017-10-11T22:02:31.643Z,23.2
2017-10-11T22:07:36.732Z,23.2
2017-10-11T22:12:41.474Z,23.2
2017-10-11T22:17:46.906Z,23.2
2017-10-11T22:22:51.995Z,23.2
2017-10-11T22:27:58.113Z,23.2
2017-10-11T22:33:02.857Z,23.2
2017-10-11T22:38:07.958Z,23.2
2017-10-11T22:43:13.783Z,23.2
2017-10-11T22:48:19.213Z,23.2
2017-10-11T22:53:25.236Z,23.2
2017-10-11T22:58:31.025Z,23.2
2017-10-11T23:03:36.820Z,23.1
2017-10-11T23:08:41.909Z,23.1
2017-10-11T23:13:47.683Z,23.1
2017-10-11T23:18:53.483Z,23.1
2017-10-11T23:23:58.587Z,23.1
2017-10-11T23:29:04.032Z,23.1
2017-10-11T23:34:09.818Z,23.1
2017-10-11T23:39:15.607Z,23.1
2017-10-11T23:44:21.069Z,23.1
2017-10-11T23:49:25.842Z,23.1
2017-10-11T23:54:31.628Z,23.1
2017-10-11T23:59:36.722Z,23.1
